Time;durP1;ratioP1;P1;durP2;ratioP2;P2;SDS_P1;SDS_P2;PMS_P1;PMS_P2;Temp;Humidity;BMP_temperature;BMP_pressure;BME280_temperature;BME280_humidity;BME280_pressure;Samples;Min_cycle;Max_cycle;Signal;HPM_P1;HPM_P2
2023/02/19 00:01:49;;;;;;;3.00;2.80;;;9.00;99.90;;;;;;5062686;28;20224;-81
2023/02/19 00:04:19;;;;;;;3.58;2.63;;;9.00;99.90;;;;;;5066196;28;20242;-77
2023/02/19 00:06:47;;;;;;;2.63;2.40;;;8.90;99.90;;;;;;5067429;28;20221;-82
2023/02/19 00:09:17;;;;;;;2.40;2.20;;;8.90;99.90;;;;;;5066876;28;20232;-79
2023/02/19 00:11:46;;;;;;;2.70;2.50;;;8.90;99.90;;;;;;5069399;28;20228;-78
2023/02/19 00:14:16;;;;;;;4.78;3.17;;;8.90;99.90;;;;;;5070298;28;20229;-78
2023/02/19 00:16:44;;;;;;;3.63;2.78;;;8.90;99.90;;;;;;5067281;28;20552;-82
2023/02/19 00:19:18;;;;;;;3.03;2.72;;;8.90;99.90;;;;;;5072722;28;20721;-83
2023/02/19 00:21:45;;;;;;;3.40;3.15;;;8.90;99.90;;;;;;5064046;28;20242;-78
2023/02/19 00:24:14;;;;;;;3.50;3.08;;;8.90;99.90;;;;;;5069832;28;20222;-81
2023/02/19 00:26:45;;;;;;;6.97;4.07;;;8.90;99.90;;;;;;5070215;28;20227;-76
2023/02/19 00:29:14;;;;;;;5.03;4.45;;;8.90;99.90;;;;;;5064190;28;20239;-81
2023/02/19 00:31:42;;;;;;;5.57;4.30;;;8.90;99.90;;;;;;5061891;28;20229;-77
2023/02/19 00:34:10;;;;;;;5.10;4.57;;;8.90;99.90;;;;;;5069742;28;20229;-77
2023/02/19 00:36:41;;;;;;;5.88;3.90;;;8.90;99.90;;;;;;5070667;28;20278;-78
2023/02/19 00:39:11;;;;;;;4.90;3.80;;;8.90;99.90;;;;;;5065874;28;20254;-78
2023/02/19 00:41:38;;;;;;;6.38;4.30;;;8.90;99.90;;;;;;5064362;28;20220;-82
2023/02/19 00:44:10;;;;;;;4.30;3.90;;;8.90;99.90;;;;;;5066781;28;20244;-77
2023/02/19 00:46:43;;;;;;;4.22;3.55;;;8.90;99.90;;;;;;5069215;28;20236;-78
2023/02/19 00:49:15;;;;;;;3.63;3.17;;;8.90;99.90;;;;;;5068198;28;20243;-77
2023/02/19 00:51:44;;;;;;;3.95;3.55;;;8.80;99.90;;;;;;5061863;28;20224;-78
2023/02/19 00:54:12;;;;;;;3.60;3.30;;;8.80;99.90;;;;;;5063120;28;20224;-78
2023/02/19 00:56:39;;;;;;;4.53;3.60;;;8.80;99.90;;;;;;5074387;28;20220;-78
2023/02/19 00:59:06;;;;;;;4.05;3.75;;;8.80;99.90;;;;;;5062140;28;20233;-82
2023/02/19 01:01:34;;;;;;;3.75;3.45;;;8.80;99.90;;;;;;5069563;28;20216;-78
2023/02/19 01:04:02;;;;;;;2.47;2.33;;;8.80;99.90;;;;;;5067880;28;20222;-78
2023/02/19 01:06:31;;;;;;;2.40;2.20;;;8.80;99.90;;;;;;5062508;28;20661;-78
2023/02/19 01:09:02;;;;;;;3.45;3.15;;;8.80;99.90;;;;;;5060994;28;20320;-78
2023/02/19 01:11:29;;;;;;;2.60;2.40;;;8.70;99.90;;;;;;5074962;28;20224;-82
2023/02/19 01:13:58;;;;;;;3.10;2.80;;;8.70;99.90;;;;;;5052003;28;20224;-82
2023/02/19 01:16:26;;;;;;;3.72;3.10;;;8.80;99.90;;;;;;5063594;28;20252;-82
2023/02/19 01:18:54;;;;;;;3.13;2.65;;;8.70;99.90;;;;;;5071696;28;20224;-78
2023/02/19 01:21:22;;;;;;;3.00;2.80;;;8.70;99.90;;;;;;5064015;28;20224;-82
2023/02/19 01:23:50;;;;;;;3.30;3.00;;;8.70;99.90;;;;;;5067095;28;20227;-81
2023/02/19 01:26:22;;;;;;;3.97;3.53;;;8.70;99.90;;;;;;5046694;28;20227;-78
2023/02/19 01:28:49;;;;;;;2.80;2.60;;;8.70;99.90;;;;;;5060000;28;20261;-77
2023/02/19 01:31:19;;;;;;;2.70;2.50;;;8.70;99.90;;;;;;5061465;28;20220;-81
2023/02/19 01:33:47;;;;;;;3.55;3.30;;;8.70;99.90;;;;;;5060560;28;20232;-81
2023/02/19 01:36:14;;;;;;;2.65;2.45;;;8.70;99.90;;;;;;5061368;28;20225;-82
2023/02/19 01:38:41;;;;;;;4.47;4.07;;;8.70;99.90;;;;;;5066575;28;20256;-82
2023/02/19 01:41:10;;;;;;;3.60;3.30;;;8.70;99.90;;;;;;5067323;28;20232;-82
2023/02/19 01:43:58;;;;;;;3.85;3.08;;;8.80;99.90;;;;;;5062118;28;20227;-76
2023/02/19 01:46:27;;;;;;;3.10;2.80;;;8.70;99.90;;;;;;5057687;28;20223;-81
2023/02/19 01:48:55;;;;;;;4.38;3.97;;;8.70;99.90;;;;;;5060301;28;20615;-80
2023/02/19 01:51:22;;;;;;;3.65;3.35;;;8.70;99.90;;;;;;5066743;28;20224;-81
2023/02/19 01:53:54;;;;;;;5.35;2.90;;;8.70;99.90;;;;;;5066466;28;20228;-81
2023/02/19 01:56:22;;;;;;;4.90;4.28;;;8.70;99.90;;;;;;5055602;28;20248;-77
2023/02/19 01:58:50;;;;;;;3.55;3.20;;;8.70;99.90;;;;;;5065370;28;20235;-79
2023/02/19 02:01:18;;;;;;;3.30;3.00;;;8.70;99.90;;;;;;5066775;28;20228;-81
2023/02/19 02:03:49;;;;;;;3.60;3.30;;;8.70;99.90;;;;;;5063131;28;20231;-82
2023/02/19 02:06:22;;;;;;;4.30;3.55;;;8.60;99.90;;;;;;5060017;28;20281;-77
2023/02/19 02:11:36;;;;;;;4.68;3.78;;;8.60;99.90;;;;;;5066878;28;20231;-77
2023/02/19 02:14:04;;;;;;;4.35;3.95;;;8.60;99.90;;;;;;5063596;28;20238;-76
2023/02/19 02:16:43;;;;;;;5.28;4.40;;;8.50;99.90;;;;;;5064195;28;20224;-81
2023/02/19 02:19:30;;;;;;;5.25;4.20;;;8.50;99.90;;;;;;5062540;28;20228;-77
2023/02/19 02:22:07;;;;;;;4.45;4.00;;;8.50;99.90;;;;;;5072455;28;20663;-82
2023/02/19 02:25:01;;;;;;;5.25;4.78;;;8.50;99.90;;;;;;5071788;28;20736;-82
2023/02/19 02:27:39;;;;;;;5.10;4.63;;;8.50;99.90;;;;;;5070726;28;20247;-78
2023/02/19 02:30:24;;;;;;;6.40;4.28;;;8.50;99.90;;;;;;5063538;28;20223;-77
2023/02/19 02:33:01;;;;;;;8.18;5.80;;;8.50;99.90;;;;;;5058951;28;20693;-77
2023/02/19 02:35:31;;;;;;;4.95;4.43;;;8.40;99.90;;;;;;5058896;28;20303;-78
2023/02/19 02:38:02;;;;;;;6.97;5.18;;;8.40;99.90;;;;;;5065184;28;20244;-78
2023/02/19 02:40:32;;;;;;;5.68;4.75;;;8.40;99.90;;;;;;5064587;28;20331;-81
2023/02/19 02:43:00;;;;;;;8.40;5.05;;;8.40;99.90;;;;;;5061879;28;20224;-77
2023/02/19 02:45:36;;;;;;;6.38;5.65;;;8.40;99.90;;;;;;5060265;28;20228;-77
2023/02/19 02:48:20;;;;;;;7.07;5.57;;;8.40;99.90;;;;;;5062932;28;20226;-77
2023/02/19 02:50:52;;;;;;;5.75;5.15;;;8.40;99.90;;;;;;5064243;28;20274;-77
2023/02/19 02:56:10;;;;;;;5.10;4.60;;;8.40;99.90;;;;;;5052440;28;20322;-82
2023/02/19 02:58:38;;;;;;;9.85;4.63;;;8.40;99.90;;;;;;5060305;28;20727;-82
2023/02/19 03:04:03;;;;;;;4.95;4.13;;;8.40;99.90;;;;;;5059992;28;20815;-81
2023/02/19 03:06:33;;;;;;;10.82;5.20;;;8.40;99.90;;;;;;5065517;28;20290;-77
2023/02/19 03:09:07;;;;;;;5.75;4.43;;;8.30;99.90;;;;;;5060967;28;20226;-83
2023/02/19 03:20:11;;;;;;;6.78;4.38;;;8.20;99.90;;;;;;5061758;28;20296;-77
2023/02/19 03:22:40;;;;;;;4.70;4.30;;;8.20;99.90;;;;;;5058934;28;20673;-77
2023/02/19 03:27:58;;;;;;;5.85;3.72;;;8.10;99.90;;;;;;5058157;28;20244;-81
2023/02/19 03:30:31;;;;;;;4.97;4.40;;;8.10;99.90;;;;;;5069003;28;20228;-82
2023/02/19 03:33:07;;;;;;;8.18;4.68;;;8.10;99.90;;;;;;5059307;28;20568;-82
2023/02/19 03:35:37;;;;;;;5.95;4.90;;;8.10;99.90;;;;;;5059122;28;20246;-82
2023/02/19 03:38:10;;;;;;;6.68;6.05;;;8.00;99.90;;;;;;5061177;28;20246;-77
2023/02/19 03:40:51;;;;;;;8.77;5.15;;;8.00;99.90;;;;;;5065166;28;20221;-82
2023/02/19 03:43:23;;;;;;;3.20;2.97;;;8.00;99.90;;;;;;5064793;28;20223;-82
2023/02/19 03:45:59;;;;;;;6.13;2.88;;;7.80;99.90;;;;;;5052738;28;20217;-83
2023/02/19 03:48:36;;;;;;;5.68;3.08;;;7.80;99.90;;;;;;5050912;28;20729;-77
2023/02/19 03:51:13;;;;;;;11.07;3.53;;;7.60;99.90;;;;;;5050483;28;20216;-81
2023/02/19 03:53:51;;;;;;;2.88;2.28;;;7.60;99.90;;;;;;5052190;28;20239;-77
2023/02/19 03:56:28;;;;;;;8.55;3.17;;;7.60;99.90;;;;;;5051773;28;20228;-76
2023/02/19 03:58:59;;;;;;;3.80;2.25;;;7.50;99.90;;;;;;5052465;28;20282;-81
2023/02/19 04:01:31;;;;;;;3.10;2.83;;;7.40;99.90;;;;;;5050968;28;20247;-77
2023/02/19 04:04:08;;;;;;;4.40;2.80;;;7.40;99.90;;;;;;5051574;28;20224;-77
2023/02/19 04:06:37;;;;;;;6.95;3.22;;;7.40;99.90;;;;;;5051956;28;20248;-77
2023/02/19 04:09:08;;;;;;;4.50;3.65;;;7.30;99.90;;;;;;5052395;28;20294;-77
2023/02/19 04:11:37;;;;;;;3.63;3.05;;;7.30;99.90;;;;;;5051381;28;20232;-76
2023/02/19 04:14:09;;;;;;;9.38;3.83;;;7.30;99.90;;;;;;5051711;28;20247;-82
2023/02/19 04:16:41;;;;;;;7.95;4.15;;;7.20;99.90;;;;;;5051360;28;20534;-83
2023/02/19 04:19:13;;;;;;;7.43;3.15;;;7.20;99.90;;;;;;5042959;28;20231;-83
2023/02/19 04:21:46;;;;;;;5.85;3.13;;;7.10;99.90;;;;;;5051979;28;20927;-82
2023/02/19 04:24:18;;;;;;;9.10;3.60;;;7.10;99.90;;;;;;5055290;28;20233;-83
2023/02/19 04:26:46;;;;;;;4.07;2.70;;;7.10;99.90;;;;;;5054986;28;20232;-77
2023/02/19 04:32:25;;;;;;;6.88;2.92;;;7.00;99.90;;;;;;5044946;28;20358;-77
2023/02/19 04:34:53;;;;;;;2.97;2.50;;;7.00;99.90;;;;;;5055630;28;20278;-83
2023/02/19 04:37:20;;;;;;;2.30;2.08;;;7.00;99.90;;;;;;5053017;28;20262;-77
2023/02/19 04:39:49;;;;;;;6.03;3.00;;;7.00;99.90;;;;;;5055709;28;20282;-82
2023/02/19 04:42:17;;;;;;;3.42;2.60;;;6.90;99.90;;;;;;5054888;28;20278;-82
2023/02/19 04:44:44;;;;;;;3.30;2.65;;;6.90;99.90;;;;;;5056010;28;20220;-77
2023/02/19 04:47:11;;;;;;;5.03;3.30;;;6.90;99.90;;;;;;5055112;28;20311;-82
2023/02/19 04:49:39;;;;;;;5.80;2.80;;;7.00;99.90;;;;;;5056585;28;20290;-83
2023/02/19 04:52:07;;;;;;;5.97;2.78;;;7.00;99.90;;;;;;5056626;28;20228;-83
2023/02/19 04:54:34;;;;;;;4.90;2.75;;;6.90;99.90;;;;;;5054786;28;20235;-83
2023/02/19 04:57:01;;;;;;;5.57;2.72;;;6.90;99.90;;;;;;5064212;28;20225;-77
2023/02/19 04:59:29;;;;;;;6.10;2.90;;;6.90;99.90;;;;;;5054445;28;20734;-76
2023/02/19 05:01:57;;;;;;;2.60;2.40;;;6.90;99.90;;;;;;5059859;28;20228;-78
2023/02/19 05:04:24;;;;;;;5.20;3.63;;;6.90;99.90;;;;;;5058349;28;20243;-81
2023/02/19 05:06:51;;;;;;;4.95;3.00;;;6.90;99.90;;;;;;5054174;28;20260;-82
2023/02/19 05:09:19;;;;;;;3.47;2.80;;;6.90;99.90;;;;;;5051965;28;20225;-76
2023/02/19 05:11:49;;;;;;;4.18;2.78;;;6.90;99.90;;;;;;5054768;28;20559;-76
2023/02/19 05:14:17;;;;;;;3.47;2.90;;;6.90;99.90;;;;;;5053594;28;20232;-76
2023/02/19 05:16:44;;;;;;;4.13;3.00;;;6.90;99.90;;;;;;5053775;28;20235;-77
2023/02/19 05:19:12;;;;;;;4.55;3.15;;;6.90;99.90;;;;;;5054700;28;20328;-77
2023/02/19 05:21:40;;;;;;;3.78;2.70;;;6.90;99.90;;;;;;5053223;28;20229;-76
2023/02/19 05:24:08;;;;;;;3.33;2.67;;;6.80;99.90;;;;;;5054821;28;20638;-82
2023/02/19 05:26:36;;;;;;;3.75;2.90;;;6.80;99.90;;;;;;5044357;28;20220;-77
2023/02/19 05:29:04;;;;;;;3.50;3.20;;;6.80;99.90;;;;;;5054731;28;20578;-77
2023/02/19 05:31:32;;;;;;;3.85;2.85;;;6.80;99.90;;;;;;5053718;28;20228;-77
2023/02/19 05:33:59;;;;;;;4.78;3.58;;;6.80;99.90;;;;;;5054435;28;20240;-78
2023/02/19 05:36:27;;;;;;;3.75;3.28;;;6.80;99.90;;;;;;5053554;28;20232;-80
2023/02/19 05:38:56;;;;;;;3.78;3.20;;;6.80;99.90;;;;;;5056179;28;20251;-82
2023/02/19 05:41:25;;;;;;;4.65;3.63;;;6.80;99.90;;;;;;5063496;28;20223;-77
2023/02/19 05:43:57;;;;;;;3.60;2.80;;;6.80;99.90;;;;;;5063216;28;20232;-83
2023/02/19 05:46:26;;;;;;;5.00;3.38;;;6.80;99.90;;;;;;5065057;28;20297;-78
2023/02/19 05:48:54;;;;;;;3.80;2.40;;;6.80;99.90;;;;;;5061184;28;20221;-78
2023/02/19 05:51:22;;;;;;;4.32;2.78;;;6.80;99.90;;;;;;5067633;28;20228;-81
2023/02/19 05:53:51;;;;;;;5.47;2.92;;;6.80;99.90;;;;;;5046843;28;20240;-81
2023/02/19 05:56:32;;;;;;;3.45;2.20;;;6.80;99.90;;;;;;5051605;28;20302;-82
2023/02/19 05:59:05;;;;;;;3.35;2.70;;;6.80;99.90;;;;;;5053277;28;20654;-77
2023/02/19 06:01:32;;;;;;;4.25;2.95;;;6.80;99.90;;;;;;5054144;28;20382;-82
2023/02/19 06:04:00;;;;;;;7.47;2.28;;;6.80;99.90;;;;;;5053097;28;20231;-77
2023/02/19 06:06:28;;;;;;;2.22;1.83;;;6.70;99.90;;;;;;5054576;28;20250;-82
2023/02/19 06:08:55;;;;;;;2.45;1.90;;;6.80;99.90;;;;;;5050586;28;20315;-83
2023/02/19 06:11:23;;;;;;;2.65;2.17;;;6.80;99.90;;;;;;5053745;28;20231;-76
2023/02/19 06:13:50;;;;;;;3.58;2.85;;;6.80;99.90;;;;;;5052674;28;20320;-78
2023/02/19 06:16:22;;;;;;;2.20;2.00;;;6.80;99.90;;;;;;5054056;28;20225;-82
2023/02/19 06:18:52;;;;;;;3.67;2.65;;;6.70;99.90;;;;;;5053633;28;20316;-82
2023/02/19 06:21:20;;;;;;;4.95;2.63;;;6.70;99.90;;;;;;5053638;28;20681;-77
2023/02/19 06:23:50;;;;;;;2.70;2.50;;;6.70;99.90;;;;;;5052154;28;20221;-82
2023/02/19 06:26:20;;;;;;;3.28;2.60;;;6.70;99.90;;;;;;5053722;28;20220;-77
2023/02/19 06:28:48;;;;;;;4.95;3.53;;;6.70;99.90;;;;;;5053226;28;20224;-81
2023/02/19 06:31:16;;;;;;;4.00;2.80;;;6.70;99.90;;;;;;5053596;28;20222;-83
2023/02/19 06:33:45;;;;;;;4.93;3.45;;;6.70;99.90;;;;;;5052200;28;20225;-82
2023/02/19 06:36:14;;;;;;;5.80;3.92;;;6.70;99.90;;;;;;5053651;28;20676;-82
2023/02/19 06:38:45;;;;;;;6.20;3.92;;;6.70;99.90;;;;;;5053669;28;20673;-78
2023/02/19 06:41:13;;;;;;;5.18;3.80;;;6.70;99.90;;;;;;5025660;28;20224;-77
2023/02/19 06:43:41;;;;;;;8.27;5.15;;;6.70;99.90;;;;;;5053083;28;20917;-77
2023/02/19 06:46:11;;;;;;;5.97;4.75;;;6.70;99.90;;;;;;5052519;28;20232;-77
2023/02/19 06:48:39;;;;;;;6.13;3.97;;;6.70;99.90;;;;;;5053729;28;20302;-83
2023/02/19 06:51:11;;;;;;;5.82;3.45;;;6.70;99.90;;;;;;5053039;28;20221;-77
2023/02/19 06:53:38;;;;;;;7.78;3.65;;;6.70;99.90;;;;;;5036203;28;20249;-79
2023/02/19 06:56:08;;;;;;;7.10;3.38;;;6.80;99.90;;;;;;5041817;28;20236;-82
2023/02/19 06:58:35;;;;;;;2.80;2.28;;;6.80;99.90;;;;;;5053145;28;20233;-77
2023/02/19 07:01:02;;;;;;;5.22;3.25;;;6.70;99.90;;;;;;5052551;28;20233;-82
2023/02/19 07:03:30;;;;;;;4.45;2.67;;;6.70;99.90;;;;;;5053099;28;20216;-83
2023/02/19 07:05:59;;;;;;;4.30;3.47;;;6.70;99.90;;;;;;5052187;28;20232;-78
2023/02/19 07:08:28;;;;;;;4.40;2.30;;;6.70;99.90;;;;;;5052778;28;20285;-77
2023/02/19 07:10:56;;;;;;;4.88;2.90;;;6.70;99.90;;;;;;5053583;28;20229;-79
2023/02/19 07:13:23;;;;;;;3.97;2.60;;;6.70;99.90;;;;;;5053358;28;20220;-82
2023/02/19 07:15:50;;;;;;;2.47;2.28;;;6.70;99.90;;;;;;5053283;28;20220;-82
2023/02/19 07:18:17;;;;;;;5.20;2.75;;;6.70;99.90;;;;;;5052296;28;20321;-77
2023/02/19 07:20:45;;;;;;;3.97;2.80;;;6.70;99.90;;;;;;5052598;28;20354;-77
2023/02/19 07:23:12;;;;;;;4.82;3.30;;;6.80;99.90;;;;;;5052586;28;20220;-78
2023/02/19 07:25:40;;;;;;;3.33;3.03;;;6.70;99.90;;;;;;5052503;28;20512;-77
2023/02/19 07:28:07;;;;;;;4.72;1.98;;;6.70;99.90;;;;;;5052181;28;20229;-83
2023/02/19 07:30:35;;;;;;;4.43;3.00;;;6.70;99.90;;;;;;5052725;28;20253;-81
2023/02/19 07:33:02;;;;;;;4.00;2.60;;;6.80;99.90;;;;;;5051455;28;20290;-77
2023/02/19 07:35:31;;;;;;;4.30;3.40;;;6.80;99.90;;;;;;5052897;28;20301;-82
2023/02/19 07:37:58;;;;;;;5.30;3.65;;;6.80;99.90;;;;;;5052133;28;20749;-81
2023/02/19 07:40:25;;;;;;;5.45;3.67;;;6.80;99.90;;;;;;5052177;28;20224;-76
2023/02/19 07:42:53;;;;;;;6.95;4.07;;;6.80;99.90;;;;;;5052606;28;20227;-76
2023/02/19 07:45:20;;;;;;;5.32;4.40;;;6.80;99.90;;;;;;5051841;28;20267;-81
2023/02/19 07:47:47;;;;;;;8.38;4.28;;;6.90;99.90;;;;;;5053277;28;20677;-75
2023/02/19 07:50:15;;;;;;;5.63;3.97;;;6.80;99.90;;;;;;5053315;28;20229;-81
2023/02/19 07:52:43;;;;;;;8.82;3.60;;;6.90;99.90;;;;;;5053330;28;20216;-76
2023/02/19 07:55:11;;;;;;;6.47;3.97;;;6.90;99.90;;;;;;5051349;28;20248;-77
2023/02/19 07:57:38;;;;;;;4.70;4.25;;;6.90;99.90;;;;;;5053512;28;20246;-81
2023/02/19 08:00:08;;;;;;;4.20;3.42;;;6.90;99.90;;;;;;5044890;28;20324;-79
2023/02/19 08:05:23;;;;;;;6.72;5.50;;;6.90;99.90;;;;;;5034416;28;20228;-76
2023/02/19 08:07:50;;;;;;;5.65;4.15;;;6.90;99.90;;;;;;5050641;28;20278;-76
2023/02/19 08:13:21;;;;;;;6.32;5.18;;;6.90;99.90;;;;;;5056445;28;20236;-83
2023/02/19 08:15:51;;;;;;;8.02;4.43;;;6.90;99.90;;;;;;5055978;28;20702;-81
2023/02/19 08:18:20;;;;;;;7.65;5.57;;;6.90;99.90;;;;;;5056272;28;20225;-82
2023/02/19 08:21:01;;;;;;;9.95;6.57;;;6.90;99.90;;;;;;5055644;28;20320;-77
2023/02/19 08:23:29;;;;;;;6.35;4.60;;;6.90;99.90;;;;;;5056280;28;20646;-76
2023/02/19 08:26:01;;;;;;;5.15;4.57;;;6.90;99.90;;;;;;5053173;28;20224;-76
2023/02/19 08:28:29;;;;;;;4.50;3.63;;;6.90;99.90;;;;;;5055688;28;20239;-76
2023/02/19 08:31:02;;;;;;;4.53;3.78;;;6.90;99.90;;;;;;5055562;28;20247;-77
2023/02/19 08:33:29;;;;;;;6.80;4.55;;;7.00;99.90;;;;;;5056031;28;20225;-82
2023/02/19 08:35:56;;;;;;;10.77;4.43;;;7.00;99.90;;;;;;5055588;28;20228;-82
2023/02/19 08:38:24;;;;;;;9.73;6.88;;;7.00;99.90;;;;;;5055606;28;20236;-77
2023/02/19 08:40:54;;;;;;;7.18;3.75;;;7.00;99.90;;;;;;5054255;28;20221;-77
2023/02/19 08:43:21;;;;;;;6.15;3.65;;;7.00;99.90;;;;;;5055401;28;20243;-82
2023/02/19 08:45:48;;;;;;;5.63;3.45;;;7.00;99.90;;;;;;5054841;28;20307;-77
2023/02/19 08:48:19;;;;;;;6.35;4.38;;;7.00;99.90;;;;;;5055288;28;20232;-82
2023/02/19 08:50:54;;;;;;;5.65;4.40;;;7.00;99.90;;;;;;5055137;28;20309;-78
2023/02/19 08:53:27;;;;;;;8.20;6.70;;;7.00;99.90;;;;;;5055362;28;20224;-82
2023/02/19 08:55:54;;;;;;;8.82;4.70;;;7.00;99.90;;;;;;5055020;28;20319;-77
2023/02/19 08:58:21;;;;;;;9.70;4.30;;;7.00;99.90;;;;;;5039486;28;20221;-82
2023/02/19 09:00:49;;;;;;;5.00;2.97;;;7.10;99.90;;;;;;5044446;28;20228;-78
2023/02/19 09:03:17;;;;;;;14.68;7.35;;;7.10;99.90;;;;;;5045520;28;20231;-77
2023/02/19 09:05:48;;;;;;;5.68;3.55;;;7.20;99.90;;;;;;5053838;28;20221;-77
2023/02/19 09:08:15;;;;;;;6.30;3.47;;;7.20;99.90;;;;;;5055000;28;20690;-77
2023/02/19 09:10:42;;;;;;;3.95;3.13;;;7.30;99.90;;;;;;5053724;28;20224;-77
2023/02/19 09:13:09;;;;;;;4.88;3.22;;;7.40;99.90;;;;;;5054524;28;20233;-76
2023/02/19 09:15:38;;;;;;;3.80;2.42;;;7.40;99.90;;;;;;5055606;28;20232;-83
2023/02/19 09:18:08;;;;;;;6.50;2.50;;;7.50;99.90;;;;;;5054316;28;20676;-77
2023/02/19 09:20:36;;;;;;;9.80;2.95;;;7.50;99.90;;;;;;5055193;28;20227;-78
2023/02/19 09:23:03;;;;;;;9.25;3.30;;;7.60;99.90;;;;;;5053830;28;20709;-77
2023/02/19 09:25:32;;;;;;;7.53;3.50;;;7.60;99.90;;;;;;5038518;28;20736;-82
2023/02/19 09:28:21;;;;;;;5.18;2.53;;;7.70;99.90;;;;;;5044398;28;20236;-82
2023/02/19 09:30:53;;;;;;;9.05;4.78;;;7.70;99.90;;;;;;5045233;28;20294;-81
2023/02/19 09:33:20;;;;;;;9.77;4.00;;;7.80;99.90;;;;;;5055942;28;20228;-78
2023/02/19 09:35:49;;;;;;;5.50;3.25;;;7.80;99.90;;;;;;5054986;28;20696;-83
2023/02/19 09:38:31;;;;;;;3.63;2.25;;;7.80;99.90;;;;;;5068752;22;20292;-84
2023/02/19 09:41:00;;;;;;;4.68;2.50;;;7.80;99.90;;;;;;5091466;28;20682;-78
2023/02/19 09:43:29;;;;;;;3.25;2.25;;;7.90;99.90;;;;;;5084078;28;20219;-83
2023/02/19 09:46:03;;;;;;;5.45;2.28;;;8.00;99.90;;;;;;5093771;28;20699;-83
2023/02/19 09:48:31;;;;;;;3.78;2.08;;;8.00;99.90;;;;;;5094221;28;20694;-78
2023/02/19 09:51:03;;;;;;;5.25;2.30;;;8.10;99.90;;;;;;5084227;28;20219;-78
2023/02/19 09:53:42;;;;;;;6.68;2.67;;;8.10;99.90;;;;;;5094121;28;20219;-77
2023/02/19 09:56:10;;;;;;;7.35;2.72;;;8.10;99.90;;;;;;5093489;28;20227;-78
2023/02/19 09:58:46;;;;;;;5.13;2.38;;;8.10;99.90;;;;;;5094356;28;20220;-82
2023/02/19 10:01:14;;;;;;;4.68;2.60;;;8.10;99.90;;;;;;5084129;28;20288;-83
2023/02/19 10:03:45;;;;;;;3.50;2.65;;;8.20;99.90;;;;;;5095020;28;20219;-78
2023/02/19 10:06:22;;;;;;;5.85;2.83;;;8.10;99.90;;;;;;5093691;28;20341;-78
2023/02/19 10:08:52;;;;;;;6.82;2.65;;;8.20;99.90;;;;;;5094306;28;20219;-83
2023/02/19 10:11:20;;;;;;;4.90;2.03;;;8.20;99.90;;;;;;5095048;28;20281;-82
2023/02/19 10:13:54;;;;;;;4.45;2.35;;;8.20;99.90;;;;;;5085063;28;20303;-78
2023/02/19 10:16:28;;;;;;;4.80;2.13;;;8.20;99.90;;;;;;5084354;28;20671;-83
2023/02/19 10:18:55;;;;;;;4.63;1.65;;;8.20;99.90;;;;;;5083393;28;20235;-78
2023/02/19 10:21:26;;;;;;;6.30;2.30;;;8.20;99.90;;;;;;5092780;28;20230;-77
2023/02/19 10:23:55;;;;;;;3.97;2.88;;;8.20;99.90;;;;;;5093972;28;20533;-82
2023/02/19 10:26:24;;;;;;;10.73;4.40;;;8.20;99.90;;;;;;5094447;28;20633;-82
2023/02/19 10:28:52;;;;;;;7.90;2.05;;;8.20;99.90;;;;;;5094916;28;20250;-82
2023/02/19 10:31:22;;;;;;;3.65;2.28;;;8.20;99.90;;;;;;5094459;28;20227;-82
2023/02/19 10:34:21;;;;;;;7.28;2.45;;;8.20;99.90;;;;;;5093689;28;20223;-82
2023/02/19 10:36:52;;;;;;;3.72;1.95;;;8.30;99.90;;;;;;5094024;28;20234;-76
2023/02/19 10:39:41;;;;;;;6.90;2.60;;;8.30;99.90;;;;;;5091159;28;20246;-78
2023/02/19 10:42:16;;;;;;;4.93;2.22;;;8.40;99.90;;;;;;5094347;28;20271;-82
2023/02/19 10:44:46;;;;;;;4.70;2.08;;;8.40;99.90;;;;;;5095264;28;20218;-83
2023/02/19 10:47:22;;;;;;;3.70;1.88;;;8.50;99.90;;;;;;5093277;28;20235;-78
2023/02/19 10:49:51;;;;;;;5.47;2.45;;;8.50;99.90;;;;;;5094390;28;20243;-83
2023/02/19 10:52:24;;;;;;;4.13;2.05;;;8.50;99.90;;;;;;5093991;28;20234;-82
2023/02/19 10:54:55;;;;;;;3.75;2.03;;;8.60;99.90;;;;;;5094424;28;20292;-82
2023/02/19 10:57:34;;;;;;;6.30;2.38;;;8.70;99.90;;;;;;5093659;28;20765;-83
2023/02/19 11:00:06;;;;;;;5.07;2.28;;;8.70;99.90;;;;;;5093482;28;20246;-83
2023/02/19 11:02:33;;;;;;;3.22;1.73;;;8.70;99.90;;;;;;5093762;28;20223;-83
2023/02/19 11:05:18;;;;;;;10.73;6.10;;;8.70;99.90;;;;;;5092912;28;20219;-83
2023/02/19 11:07:50;;;;;;;6.85;4.00;;;8.70;99.90;;;;;;5094041;28;20539;-78
2023/02/19 11:10:26;;;;;;;9.40;3.90;;;8.80;99.90;;;;;;5093798;28;20517;-77
2023/02/19 11:12:55;;;;;;;3.85;2.08;;;8.80;99.90;;;;;;5092859;28;20624;-77
2023/02/19 11:15:26;;;;;;;4.38;2.05;;;8.80;99.90;;;;;;5092990;28;20233;-77
2023/02/19 11:18:00;;;;;;;7.60;2.38;;;8.80;99.90;;;;;;5094385;28;20230;-81
2023/02/19 11:20:31;;;;;;;2.47;1.45;;;8.90;99.90;;;;;;5092284;28;20226;-77
2023/02/19 11:23:04;;;;;;;2.50;1.80;;;8.90;99.90;;;;;;5092626;28;20231;-78
2023/02/19 11:25:47;;;;;;;4.45;1.77;;;8.90;99.90;;;;;;5092833;28;20215;-77
2023/02/19 11:28:27;;;;;;;2.58;1.30;;;8.90;99.90;;;;;;5091695;28;20239;-77
2023/02/19 11:31:23;;;;;;;5.63;1.63;;;8.80;99.90;;;;;;5084795;28;20227;-82
2023/02/19 11:34:28;;;;;;;5.90;2.28;;;8.80;99.90;;;;;;5095854;28;20218;-77
2023/02/19 11:37:11;;;;;;;4.18;1.75;;;8.90;99.90;;;;;;5095994;28;20223;-78
2023/02/19 11:39:41;;;;;;;5.63;2.58;;;8.80;99.90;;;;;;5085094;28;20227;-77
2023/02/19 11:42:32;;;;;;;4.57;1.98;;;8.80;99.90;;;;;;5097039;28;20729;-82
2023/02/19 11:45:14;;;;;;;2.72;1.40;;;8.90;99.90;;;;;;5097076;28;20215;-83
2023/02/19 11:48:12;;;;;;;3.83;2.33;;;8.80;99.90;;;;;;5095208;28;20701;-83
2023/02/19 11:51:13;;;;;;;3.80;1.70;;;8.80;99.90;;;;;;5096051;28;20277;-77
2023/02/19 11:53:47;;;;;;;3.72;1.67;;;8.80;99.90;;;;;;5096882;28;20223;-77
2023/02/19 11:56:19;;;;;;;6.28;5.00;;;8.80;99.90;;;;;;5097935;28;20235;-83
2023/02/19 11:59:03;;;;;;;7.10;4.53;;;8.90;99.90;;;;;;5095044;28;21010;-78
2023/02/19 12:02:11;;;;;;;6.50;4.03;;;8.90;99.90;;;;;;5095928;28;20296;-82
2023/02/19 12:05:23;;;;;;;3.65;1.85;;;8.90;99.90;;;;;;5095736;28;20672;-77
2023/02/19 12:11:11;;;;;;;2.60;1.70;;;8.80;99.90;;;;;;5075238;28;20525;-83
2023/02/19 12:13:56;;;;;;;2.97;2.05;;;8.90;99.90;;;;;;5096100;28;20215;-77
2023/02/19 12:16:31;;;;;;;2.08;1.80;;;8.90;99.90;;;;;;5098055;28;20246;-77
2023/02/19 12:19:36;;;;;;;3.67;1.63;;;8.90;99.90;;;;;;5083739;28;20560;-78
2023/02/19 12:22:29;;;;;;;3.22;2.00;;;8.90;99.90;;;;;;5098090;28;20244;-78
2023/02/19 12:25:35;;;;;;;2.42;1.40;;;8.90;99.90;;;;;;5097607;28;20254;-77
2023/02/19 12:28:33;;;;;;;3.55;1.42;;;9.00;99.90;;;;;;5097265;28;20223;-82
2023/02/19 12:31:33;;;;;;;5.15;2.00;;;9.00;99.90;;;;;;5096307;28;20675;-82
2023/02/19 12:34:43;;;;;;;3.05;1.92;;;9.00;99.90;;;;;;5096393;28;20619;-82
2023/02/19 12:37:23;;;;;;;3.13;1.73;;;9.10;99.90;;;;;;5096196;28;20231;-82
2023/02/19 12:40:10;;;;;;;4.53;2.45;;;9.10;99.90;;;;;;5059706;28;20216;-77
2023/02/19 12:42:51;;;;;;;3.05;2.25;;;9.10;99.90;;;;;;5056838;28;20225;-76
2023/02/19 12:45:21;;;;;;;2.50;2.10;;;9.20;99.90;;;;;;5056716;28;20600;-82
2023/02/19 12:48:02;;;;;;;5.50;1.98;;;9.10;99.90;;;;;;5044863;28;20308;-83
2023/02/19 12:50:37;;;;;;;4.38;1.67;;;9.10;99.90;;;;;;5057021;28;20744;-83
2023/02/19 12:53:20;;;;;;;3.17;2.00;;;9.10;99.90;;;;;;5056211;28;20626;-83
2023/02/19 12:55:53;;;;;;;10.23;4.57;;;9.20;99.90;;;;;;5056641;28;20228;-83
2023/02/19 12:58:29;;;;;;;5.82;3.40;;;9.20;99.90;;;;;;5055646;28;20228;-83
2023/02/19 13:01:07;;;;;;;6.00;3.22;;;9.20;99.90;;;;;;5055832;28;20666;-77
2023/02/19 13:03:48;;;;;;;6.80;3.90;;;9.20;99.90;;;;;;5056511;28;20605;-78
2023/02/19 13:06:32;;;;;;;5.03;2.63;;;9.20;99.90;;;;;;5054639;28;20221;-82
2023/02/19 13:09:04;;;;;;;4.75;2.45;;;9.20;99.90;;;;;;5046359;28;20566;-78
2023/02/19 13:11:35;;;;;;;2.70;2.25;;;9.30;99.90;;;;;;5056078;28;20228;-82
2023/02/19 13:14:21;;;;;;;2.75;2.55;;;9.20;99.90;;;;;;5056164;28;20223;-82
2023/02/19 13:16:59;;;;;;;4.32;2.47;;;9.30;99.90;;;;;;5061449;28;20570;-83
2023/02/19 13:19:29;;;;;;;2.17;1.73;;;9.30;99.90;;;;;;5057405;28;20345;-82
2023/02/19 13:24:58;;;;;;;2.95;1.88;;;9.30;99.80;;;;;;5056355;28;20262;-76
2023/02/19 13:27:44;;;;;;;3.75;1.95;;;9.30;99.40;;;;;;5056928;28;20224;-77
2023/02/19 13:30:28;;;;;;;2.53;1.80;;;9.30;99.30;;;;;;5055124;28;20274;-78
2023/02/19 13:33:03;;;;;;;2.90;1.85;;;9.30;99.30;;;;;;5055415;28;20232;-82
2023/02/19 13:36:04;;;;;;;3.60;2.22;;;9.20;99.30;;;;;;5056805;28;20604;-82
2023/02/19 13:38:32;;;;;;;3.42;1.30;;;9.10;99.00;;;;;;5075310;28;20222;-76
2023/02/19 13:41:00;;;;;;;2.72;1.50;;;9.10;99.10;;;;;;5095220;28;20219;-76
2023/02/19 13:43:33;;;;;;;3.72;2.00;;;9.10;99.10;;;;;;5095582;28;20251;-82
2023/02/19 13:46:05;;;;;;;3.05;1.25;;;9.10;99.10;;;;;;5095401;28;20227;-81
2023/02/19 13:48:34;;;;;;;3.35;1.50;;;9.10;98.40;;;;;;5097420;28;20227;-81
2023/02/19 13:51:50;;;;;;;3.60;1.77;;;9.10;98.10;;;;;;5097247;28;20565;-76
2023/02/19 13:54:24;;;;;;;5.53;1.60;;;9.10;98.10;;;;;;5099489;28;20231;-82
2023/02/19 13:57:27;;;;;;;8.38;2.30;;;9.10;98.10;;;;;;5101612;28;20227;-81
2023/02/19 13:59:55;;;;;;;2.72;1.40;;;9.10;98.30;;;;;;5099597;28;20325;-76
2023/02/19 14:02:29;;;;;;;2.10;1.60;;;9.10;98.30;;;;;;5096140;28;20691;-81